Cameron, New Mexico
Current Conditions -  °F | °C
As of 9:55 PM on Saturday 20 Dec 2014 (Local Time) from KCVN Reporting Station
Clear Clear  
Wind Chill: 23°   Ceiling: Unl
Heat Index: 30°   Visibility: 10mi
Dew Point: 18°   Wind: 8mph
Humidity: 60%   Direction: 220°SW
Pressure: 29.99"   Gusts: NA
Location:  34.7878°N, 103.316°W
Report Text: KCVN 210455Z 22007KT 10SM CLR M01/M08 A2999 RMK AO1
Loading
Personal Weather Stations






























Interactive Weather Map New forecast layout! Learn more

10-Day Weather Forecast

Advertisements
Track Severe Weather on mobile